sensor_id;sensor_type;location;lat;lon;timestamp;temperature;humidity
58309;DHT22;44117;57.142;24.826;2022-07-29T00:01:40;13.60;99.90
58309;DHT22;44117;57.142;24.826;2022-07-29T00:04:08;13.60;99.90
58309;DHT22;44117;57.142;24.826;2022-07-29T00:06:36;13.50;99.90
58309;DHT22;44117;57.142;24.826;2022-07-29T00:09:03;13.40;99.90
58309;DHT22;44117;57.142;24.826;2022-07-29T00:11:31;13.30;99.90
58309;DHT22;44117;57.142;24.826;2022-07-29T00:13:58;13.20;99.90
58309;DHT22;44117;57.142;24.826;2022-07-29T00:16:25;13.20;99.90
58309;DHT22;44117;57.142;24.826;2022-07-29T00:18:53;13.10;99.90
58309;DHT22;44117;57.142;24.826;2022-07-29T00:21:20;13.10;99.90
58309;DHT22;44117;57.142;24.826;2022-07-29T00:23:47;13.10;99.90
58309;DHT22;44117;57.142;24.826;2022-07-29T00:26:15;13.00;99.90
58309;DHT22;44117;57.142;24.826;2022-07-29T00:28:42;13.00;99.90
58309;DHT22;44117;57.142;24.826;2022-07-29T00:31:10;13.00;99.90
58309;DHT22;44117;57.142;24.826;2022-07-29T00:33:38;12.90;99.90
58309;DHT22;44117;57.142;24.826;2022-07-29T00:36:05;12.90;99.90
58309;DHT22;44117;57.142;24.826;2022-07-29T00:38:33;12.90;99.90
58309;DHT22;44117;57.142;24.826;2022-07-29T00:41:00;12.80;99.90
58309;DHT22;44117;57.142;24.826;2022-07-29T00:43:28;12.80;99.90
58309;DHT22;44117;57.142;24.826;2022-07-29T00:45:55;12.80;99.90
58309;DHT22;44117;57.142;24.826;2022-07-29T00:48:23;12.80;99.90
58309;DHT22;44117;57.142;24.826;2022-07-29T00:50:50;12.70;99.90
58309;DHT22;44117;57.142;24.826;2022-07-29T00:53:19;12.70;99.90
58309;DHT22;44117;57.142;24.826;2022-07-29T00:55:47;12.70;99.90
58309;DHT22;44117;57.142;24.826;2022-07-29T00:58:15;12.60;99.90
58309;DHT22;44117;57.142;24.826;2022-07-29T01:00:43;12.60;99.90
58309;DHT22;44117;57.142;24.826;2022-07-29T01:03:11;12.60;99.90
58309;DHT22;44117;57.142;24.826;2022-07-29T01:05:40;12.70;99.90
58309;DHT22;44117;57.142;24.826;2022-07-29T01:08:18;12.60;99.90
58309;DHT22;44117;57.142;24.826;2022-07-29T01:10:47;12.70;99.90
58309;DHT22;44117;57.142;24.826;2022-07-29T01:13:16;12.70;99.90
58309;DHT22;44117;57.142;24.826;2022-07-29T01:15:47;12.80;99.90
58309;DHT22;44117;57.142;24.826;2022-07-29T01:18:33;12.80;99.90
58309;DHT22;44117;57.142;24.826;2022-07-29T01:21:35;12.80;99.90
58309;DHT22;44117;57.142;24.826;2022-07-29T01:24:14;12.90;99.90
58309;DHT22;44117;57.142;24.826;2022-07-29T01:29:58;12.90;99.90
58309;DHT22;44117;57.142;24.826;2022-07-29T01:32:29;12.90;99.90
58309;DHT22;44117;57.142;24.826;2022-07-29T01:35:21;12.90;99.90
58309;DHT22;44117;57.142;24.826;2022-07-29T01:38:16;12.80;99.90
58309;DHT22;44117;57.142;24.826;2022-07-29T01:41:16;12.80;99.90
58309;DHT22;44117;57.142;24.826;2022-07-29T01:46:36;12.80;99.90
58309;DHT22;44117;57.142;24.826;2022-07-29T01:49:16;12.70;99.90
58309;DHT22;44117;57.142;24.826;2022-07-29T01:52:05;12.70;99.90
58309;DHT22;44117;57.142;24.826;2022-07-29T01:54:42;12.60;99.90
58309;DHT22;44117;57.142;24.826;2022-07-29T01:57:15;12.50;99.90
58309;DHT22;44117;57.142;24.826;2022-07-29T01:59:46;12.50;99.90
58309;DHT22;44117;57.142;24.826;2022-07-29T02:02:15;12.40;99.90
58309;DHT22;44117;57.142;24.826;2022-07-29T02:04:44;12.40;99.90
58309;DHT22;44117;57.142;24.826;2022-07-29T02:07:19;12.40;99.90
58309;DHT22;44117;57.142;24.826;2022-07-29T02:09:49;12.50;99.90
58309;DHT22;44117;57.142;24.826;2022-07-29T02:12:18;12.50;99.90
58309;DHT22;44117;57.142;24.826;2022-07-29T02:14:49;12.40;99.90
58309;DHT22;44117;57.142;24.826;2022-07-29T02:17:25;12.40;99.90
58309;DHT22;44117;57.142;24.826;2022-07-29T02:19:57;12.40;99.90
58309;DHT22;44117;57.142;24.826;2022-07-29T02:22:29;12.40;99.90
58309;DHT22;44117;57.142;24.826;2022-07-29T02:24:58;12.40;99.90
58309;DHT22;44117;57.142;24.826;2022-07-29T02:27:28;12.40;99.90
58309;DHT22;44117;57.142;24.826;2022-07-29T02:29:57;12.50;99.90
58309;DHT22;44117;57.142;24.826;2022-07-29T02:32:28;12.50;99.90
58309;DHT22;44117;57.142;24.826;2022-07-29T02:34:56;12.50;99.90
58309;DHT22;44117;57.142;24.826;2022-07-29T02:37:26;12.40;99.90
58309;DHT22;44117;57.142;24.826;2022-07-29T02:39:57;12.40;99.90
58309;DHT22;44117;57.142;24.826;2022-07-29T02:42:27;12.50;99.90
58309;DHT22;44117;57.142;24.826;2022-07-29T02:44:55;12.50;99.90
58309;DHT22;44117;57.142;24.826;2022-07-29T02:47:42;12.60;99.90
58309;DHT22;44117;57.142;24.826;2022-07-29T02:50:37;12.60;99.90
58309;DHT22;44117;57.142;24.826;2022-07-29T02:53:16;12.60;99.90
58309;DHT22;44117;57.142;24.826;2022-07-29T02:55:55;12.60;99.90
58309;DHT22;44117;57.142;24.826;2022-07-29T03:01:14;12.70;99.90
58309;DHT22;44117;57.142;24.826;2022-07-29T03:03:49;12.70;99.90
58309;DHT22;44117;57.142;24.826;2022-07-29T03:06:19;12.70;99.90
58309;DHT22;44117;57.142;24.826;2022-07-29T03:09:06;12.70;99.90
58309;DHT22;44117;57.142;24.826;2022-07-29T03:11:40;12.70;99.90
58309;DHT22;44117;57.142;24.826;2022-07-29T03:14:19;12.70;99.90
58309;DHT22;44117;57.142;24.826;2022-07-29T03:16:48;12.70;99.90
58309;DHT22;44117;57.142;24.826;2022-07-29T03:19:17;12.60;99.90
58309;DHT22;44117;57.142;24.826;2022-07-29T03:21:44;12.60;99.90
58309;DHT22;44117;57.142;24.826;2022-07-29T03:24:25;12.60;99.90
58309;DHT22;44117;57.142;24.826;2022-07-29T03:26:53;12.60;99.90
58309;DHT22;44117;57.142;24.826;2022-07-29T03:29:21;12.60;99.90
58309;DHT22;44117;57.142;24.826;2022-07-29T03:31:50;12.60;99.90
58309;DHT22;44117;57.142;24.826;2022-07-29T03:34:17;12.60;99.90
58309;DHT22;44117;57.142;24.826;2022-07-29T03:36:49;12.60;99.90
58309;DHT22;44117;57.142;24.826;2022-07-29T03:39:22;12.70;99.90
58309;DHT22;44117;57.142;24.826;2022-07-29T03:41:53;12.80;99.90
58309;DHT22;44117;57.142;24.826;2022-07-29T03:44:23;12.90;99.90
58309;DHT22;44117;57.142;24.826;2022-07-29T03:46:52;13.00;99.90
58309;DHT22;44117;57.142;24.826;2022-07-29T03:49:22;13.10;99.90
58309;DHT22;44117;57.142;24.826;2022-07-29T03:51:50;13.10;99.90
58309;DHT22;44117;57.142;24.826;2022-07-29T03:54:18;13.20;99.90
58309;DHT22;44117;57.142;24.826;2022-07-29T03:56:48;13.20;99.90
58309;DHT22;44117;57.142;24.826;2022-07-29T03:59:18;13.30;99.90
58309;DHT22;44117;57.142;24.826;2022-07-29T04:01:47;13.30;99.90
58309;DHT22;44117;57.142;24.826;2022-07-29T04:04:16;13.30;99.90
58309;DHT22;44117;57.142;24.826;2022-07-29T04:06:45;13.50;99.90
58309;DHT22;44117;57.142;24.826;2022-07-29T04:09:14;13.60;99.90
58309;DHT22;44117;57.142;24.826;2022-07-29T04:11:41;13.70;99.90
58309;DHT22;44117;57.142;24.826;2022-07-29T04:14:30;13.80;99.90
58309;DHT22;44117;57.142;24.826;2022-07-29T04:16:58;13.80;99.90
58309;DHT22;44117;57.142;24.826;2022-07-29T04:19:26;13.90;99.90
58309;DHT22;44117;57.142;24.826;2022-07-29T04:21:53;13.90;99.90
58309;DHT22;44117;57.142;24.826;2022-07-29T04:24:21;14.00;99.90
58309;DHT22;44117;57.142;24.826;2022-07-29T04:26:48;14.00;99.90
58309;DHT22;44117;57.142;24.826;2022-07-29T04:29:16;14.00;99.90
58309;DHT22;44117;57.142;24.826;2022-07-29T04:31:43;14.00;99.90
58309;DHT22;44117;57.142;24.826;2022-07-29T04:34:11;14.10;99.90
58309;DHT22;44117;57.142;24.826;2022-07-29T04:36:39;14.10;99.90
58309;DHT22;44117;57.142;24.826;2022-07-29T04:39:07;14.20;99.90
58309;DHT22;44117;57.142;24.826;2022-07-29T04:41:34;14.20;99.90
58309;DHT22;44117;57.142;24.826;2022-07-29T04:44:01;14.30;99.90
58309;DHT22;44117;57.142;24.826;2022-07-29T04:46:33;14.30;99.90
58309;DHT22;44117;57.142;24.826;2022-07-29T04:49:02;14.40;99.90
58309;DHT22;44117;57.142;24.826;2022-07-29T04:51:30;14.50;99.90
58309;DHT22;44117;57.142;24.826;2022-07-29T04:53:58;14.60;99.90
58309;DHT22;44117;57.142;24.826;2022-07-29T04:56:25;14.60;99.90
58309;DHT22;44117;57.142;24.826;2022-07-29T04:58:53;14.60;99.90
58309;DHT22;44117;57.142;24.826;2022-07-29T05:01:20;14.70;99.90
58309;DHT22;44117;57.142;24.826;2022-07-29T05:03:48;14.80;99.90
58309;DHT22;44117;57.142;24.826;2022-07-29T05:06:15;14.80;99.90
58309;DHT22;44117;57.142;24.826;2022-07-29T05:08:43;14.90;99.90
58309;DHT22;44117;57.142;24.826;2022-07-29T05:11:10;14.90;99.90
58309;DHT22;44117;57.142;24.826;2022-07-29T05:13:41;15.00;99.90
58309;DHT22;44117;57.142;24.826;2022-07-29T05:16:11;15.20;99.90
58309;DHT22;44117;57.142;24.826;2022-07-29T05:18:40;15.20;99.90
58309;DHT22;44117;57.142;24.826;2022-07-29T05:21:08;15.30;99.90
58309;DHT22;44117;57.142;24.826;2022-07-29T05:23:35;15.40;99.90
58309;DHT22;44117;57.142;24.826;2022-07-29T05:26:02;15.50;99.90
58309;DHT22;44117;57.142;24.826;2022-07-29T05:28:33;15.60;99.90
58309;DHT22;44117;57.142;24.826;2022-07-29T05:31:02;15.60;99.90
58309;DHT22;44117;57.142;24.826;2022-07-29T05:33:29;15.70;99.90
58309;DHT22;44117;57.142;24.826;2022-07-29T05:36:05;15.80;99.90
58309;DHT22;44117;57.142;24.826;2022-07-29T05:38:35;16.00;99.90
58309;DHT22;44117;57.142;24.826;2022-07-29T05:41:03;16.00;99.90
58309;DHT22;44117;57.142;24.826;2022-07-29T05:43:32;16.10;99.90
58309;DHT22;44117;57.142;24.826;2022-07-29T05:45:59;16.10;99.90
58309;DHT22;44117;57.142;24.826;2022-07-29T05:48:27;16.20;99.90
58309;DHT22;44117;57.142;24.826;2022-07-29T05:50:54;16.20;99.90
58309;DHT22;44117;57.142;24.826;2022-07-29T05:53:22;16.40;99.60
58309;DHT22;44117;57.142;24.826;2022-07-29T05:55:49;16.50;99.90
58309;DHT22;44117;57.142;24.826;2022-07-29T05:58:17;16.70;99.70
58309;DHT22;44117;57.142;24.826;2022-07-29T06:00:45;16.90;99.00
58309;DHT22;44117;57.142;24.826;2022-07-29T06:03:12;17.00;99.20
58309;DHT22;44117;57.142;24.826;2022-07-29T06:05:40;16.90;97.70
58309;DHT22;44117;57.142;24.826;2022-07-29T06:08:07;16.70;98.10
58309;DHT22;44117;57.142;24.826;2022-07-29T06:10:35;16.70;99.00
58309;DHT22;44117;57.142;24.826;2022-07-29T06:13:02;16.60;98.70
58309;DHT22;44117;57.142;24.826;2022-07-29T06:15:30;16.50;99.10
58309;DHT22;44117;57.142;24.826;2022-07-29T06:17:57;16.50;99.60
58309;DHT22;44117;57.142;24.826;2022-07-29T06:20:28;16.40;98.60
58309;DHT22;44117;57.142;24.826;2022-07-29T06:22:57;16.20;99.30
58309;DHT22;44117;57.142;24.826;2022-07-29T06:25:25;16.10;99.90
58309;DHT22;44117;57.142;24.826;2022-07-29T06:27:53;16.00;99.70
58309;DHT22;44117;57.142;24.826;2022-07-29T06:30:20;15.90;99.90
58309;DHT22;44117;57.142;24.826;2022-07-29T06:32:48;15.70;99.90
58309;DHT22;44117;57.142;24.826;2022-07-29T06:35:16;15.70;99.90
58309;DHT22;44117;57.142;24.826;2022-07-29T06:38:04;15.90;99.90
58309;DHT22;44117;57.142;24.826;2022-07-29T06:40:51;16.20;99.90
58309;DHT22;44117;57.142;24.826;2022-07-29T06:43:29;16.40;99.50
58309;DHT22;44117;57.142;24.826;2022-07-29T06:46:00;16.40;98.70
58309;DHT22;44117;57.142;24.826;2022-07-29T06:48:28;16.60;99.30
58309;DHT22;44117;57.142;24.826;2022-07-29T06:50:56;16.80;98.00
58309;DHT22;44117;57.142;24.826;2022-07-29T06:53:23;17.10;96.50
58309;DHT22;44117;57.142;24.826;2022-07-29T06:55:51;17.50;98.90
58309;DHT22;44117;57.142;24.826;2022-07-29T06:58:18;17.90;98.20
58309;DHT22;44117;57.142;24.826;2022-07-29T07:00:47;18.10;96.40
58309;DHT22;44117;57.142;24.826;2022-07-29T07:03:16;18.00;95.10
58309;DHT22;44117;57.142;24.826;2022-07-29T07:05:44;18.00;95.70
58309;DHT22;44117;57.142;24.826;2022-07-29T07:08:13;18.20;95.80
58309;DHT22;44117;57.142;24.826;2022-07-29T07:10:40;18.50;95.60
58309;DHT22;44117;57.142;24.826;2022-07-29T07:13:08;18.50;94.60
58309;DHT22;44117;57.142;24.826;2022-07-29T07:15:36;18.40;94.60
58309;DHT22;44117;57.142;24.826;2022-07-29T07:18:06;18.80;95.50
58309;DHT22;44117;57.142;24.826;2022-07-29T07:20:34;18.90;94.70
58309;DHT22;44117;57.142;24.826;2022-07-29T07:23:02;18.70;94.50
58309;DHT22;44117;57.142;24.826;2022-07-29T07:25:30;18.80;94.10
58309;DHT22;44117;57.142;24.826;2022-07-29T07:27:57;18.50;93.30
58309;DHT22;44117;57.142;24.826;2022-07-29T07:30:25;18.10;94.30
58309;DHT22;44117;57.142;24.826;2022-07-29T07:32:52;17.80;95.00
58309;DHT22;44117;57.142;24.826;2022-07-29T07:35:20;18.00;95.20
58309;DHT22;44117;57.142;24.826;2022-07-29T07:37:47;18.40;94.90
58309;DHT22;44117;57.142;24.826;2022-07-29T07:40:15;18.60;94.30
58309;DHT22;44117;57.142;24.826;2022-07-29T07:42:44;18.60;94.30
58309;DHT22;44117;57.142;24.826;2022-07-29T07:45:12;18.90;94.00
58309;DHT22;44117;57.142;24.826;2022-07-29T07:47:42;19.30;94.20
58309;DHT22;44117;57.142;24.826;2022-07-29T07:50:11;19.20;93.40
58309;DHT22;44117;57.142;24.826;2022-07-29T07:52:52;18.50;92.80
58309;DHT22;44117;57.142;24.826;2022-07-29T07:55:19;18.30;94.00
58309;DHT22;44117;57.142;24.826;2022-07-29T07:57:48;18.20;93.90
58309;DHT22;44117;57.142;24.826;2022-07-29T08:00:16;18.50;94.20
58309;DHT22;44117;57.142;24.826;2022-07-29T08:02:43;18.40;94.90
58309;DHT22;44117;57.142;24.826;2022-07-29T08:05:12;18.70;93.50
58309;DHT22;44117;57.142;24.826;2022-07-29T08:07:47;19.00;93.60
58309;DHT22;44117;57.142;24.826;2022-07-29T08:10:15;19.60;94.00
58309;DHT22;44117;57.142;24.826;2022-07-29T08:13:06;19.80;93.40
58309;DHT22;44117;57.142;24.826;2022-07-29T08:15:34;19.70;91.80
58309;DHT22;44117;57.142;24.826;2022-07-29T08:18:02;19.40;92.40
58309;DHT22;44117;57.142;24.826;2022-07-29T08:20:35;18.90;92.50
58309;DHT22;44117;57.142;24.826;2022-07-29T08:23:03;18.70;93.00
58309;DHT22;44117;57.142;24.826;2022-07-29T08:25:32;18.90;93.80
58309;DHT22;44117;57.142;24.826;2022-07-29T08:28:04;19.20;92.90
58309;DHT22;44117;57.142;24.826;2022-07-29T08:30:32;18.70;93.10
58309;DHT22;44117;57.142;24.826;2022-07-29T08:32:59;18.50;93.80
58309;DHT22;44117;57.142;24.826;2022-07-29T08:35:27;18.10;94.10
58309;DHT22;44117;57.142;24.826;2022-07-29T08:38:01;18.40;94.30
58309;DHT22;44117;57.142;24.826;2022-07-29T08:40:30;18.80;93.60
58309;DHT22;44117;57.142;24.826;2022-07-29T08:43:03;19.30;94.00
58309;DHT22;44117;57.142;24.826;2022-07-29T08:45:42;19.40;92.50
58309;DHT22;44117;57.142;24.826;2022-07-29T08:48:19;19.60;92.80
58309;DHT22;44117;57.142;24.826;2022-07-29T08:50:48;19.40;91.80
58309;DHT22;44117;57.142;24.826;2022-07-29T08:53:17;19.30;91.60
58309;DHT22;44117;57.142;24.826;2022-07-29T08:55:49;19.70;91.80
58309;DHT22;44117;57.142;24.826;2022-07-29T08:58:17;20.00;91.40
58309;DHT22;44117;57.142;24.826;2022-07-29T09:00:55;19.70;91.50
58309;DHT22;44117;57.142;24.826;2022-07-29T09:03:29;18.80;91.20
58309;DHT22;44117;57.142;24.826;2022-07-29T09:05:58;18.50;92.20
58309;DHT22;44117;57.142;24.826;2022-07-29T09:08:25;18.30;93.90
58309;DHT22;44117;57.142;24.826;2022-07-29T09:10:52;18.60;92.70
58309;DHT22;44117;57.142;24.826;2022-07-29T09:13:20;19.10;93.20
58309;DHT22;44117;57.142;24.826;2022-07-29T09:15:48;19.50;91.90
58309;DHT22;44117;57.142;24.826;2022-07-29T09:21:04;20.20;91.80
58309;DHT22;44117;57.142;24.826;2022-07-29T09:24:07;20.20;90.50
58309;DHT22;44117;57.142;24.826;2022-07-29T09:26:37;20.20;90.70
58309;DHT22;44117;57.142;24.826;2022-07-29T09:29:21;20.30;91.20
58309;DHT22;44117;57.142;24.826;2022-07-29T09:31:50;20.10;91.80
58309;DHT22;44117;57.142;24.826;2022-07-29T09:36:51;20.40;91.70
58309;DHT22;44117;57.142;24.826;2022-07-29T09:39:29;20.60;90.90
58309;DHT22;44117;57.142;24.826;2022-07-29T09:41:59;20.80;90.00
58309;DHT22;44117;57.142;24.826;2022-07-29T09:44:27;20.90;90.40
58309;DHT22;44117;57.142;24.826;2022-07-29T09:47:07;21.20;90.20
58309;DHT22;44117;57.142;24.826;2022-07-29T09:49:50;21.20;90.20
58309;DHT22;44117;57.142;24.826;2022-07-29T09:52:18;21.20;89.90
58309;DHT22;44117;57.142;24.826;2022-07-29T09:54:46;21.30;90.30
58309;DHT22;44117;57.142;24.826;2022-07-29T09:57:24;20.80;88.80
58309;DHT22;44117;57.142;24.826;2022-07-29T10:02:32;21.00;89.80
58309;DHT22;44117;57.142;24.826;2022-07-29T10:05:02;21.00;89.10
58309;DHT22;44117;57.142;24.826;2022-07-29T10:07:54;20.70;89.10
58309;DHT22;44117;57.142;24.826;2022-07-29T10:10:33;20.40;90.20
58309;DHT22;44117;57.142;24.826;2022-07-29T10:13:05;20.50;87.90
58309;DHT22;44117;57.142;24.826;2022-07-29T10:15:43;20.50;90.70
58309;DHT22;44117;57.142;24.826;2022-07-29T10:18:13;20.60;90.30
58309;DHT22;44117;57.142;24.826;2022-07-29T10:20:41;21.20;88.80
58309;DHT22;44117;57.142;24.826;2022-07-29T10:23:09;21.60;84.90
58309;DHT22;44117;57.142;24.826;2022-07-29T10:25:36;21.20;86.30
58309;DHT22;44117;57.142;24.826;2022-07-29T10:28:05;21.60;86.00
58309;DHT22;44117;57.142;24.826;2022-07-29T10:30:33;22.00;81.90
58309;DHT22;44117;57.142;24.826;2022-07-29T10:33:29;22.60;84.40
58309;DHT22;44117;57.142;24.826;2022-07-29T10:42:27;23.30;83.40
58309;DHT22;44117;57.142;24.826;2022-07-29T10:45:01;22.00;83.50
58309;DHT22;44117;57.142;24.826;2022-07-29T10:47:30;21.30;86.80
58309;DHT22;44117;57.142;24.826;2022-07-29T10:50:04;22.10;84.00
58309;DHT22;44117;57.142;24.826;2022-07-29T10:55:39;23.60;78.00
58309;DHT22;44117;57.142;24.826;2022-07-29T10:58:23;23.00;77.90
58309;DHT22;44117;57.142;24.826;2022-07-29T11:00:52;23.20;78.50
58309;DHT22;44117;57.142;24.826;2022-07-29T11:06:17;24.50;77.60
58309;DHT22;44117;57.142;24.826;2022-07-29T11:09:15;25.60;76.80
58309;DHT22;44117;57.142;24.826;2022-07-29T11:11:46;25.00;75.30
58309;DHT22;44117;57.142;24.826;2022-07-29T11:14:18;25.20;75.60
58309;DHT22;44117;57.142;24.826;2022-07-29T11:17:00;24.10;77.40
58309;DHT22;44117;57.142;24.826;2022-07-29T11:19:33;24.10;78.10
58309;DHT22;44117;57.142;24.826;2022-07-29T11:22:02;24.40;78.50
58309;DHT22;44117;57.142;24.826;2022-07-29T11:24:31;25.20;79.90
58309;DHT22;44117;57.142;24.826;2022-07-29T11:27:19;25.60;75.10
58309;DHT22;44117;57.142;24.826;2022-07-29T11:29:59;26.30;73.00
58309;DHT22;44117;57.142;24.826;2022-07-29T11:32:41;26.30;72.10
58309;DHT22;44117;57.142;24.826;2022-07-29T11:35:22;26.10;73.80
58309;DHT22;44117;57.142;24.826;2022-07-29T11:41:22;24.20;77.60
58309;DHT22;44117;57.142;24.826;2022-07-29T11:43:54;24.50;79.90
58309;DHT22;44117;57.142;24.826;2022-07-29T11:46:48;25.70;76.10
58309;DHT22;44117;57.142;24.826;2022-07-29T11:49:24;26.00;76.10
58309;DHT22;44117;57.142;24.826;2022-07-29T11:51:59;26.80;70.40
58309;DHT22;44117;57.142;24.826;2022-07-29T11:54:33;26.20;72.20
58309;DHT22;44117;57.142;24.826;2022-07-29T11:57:21;26.30;70.90
58309;DHT22;44117;57.142;24.826;2022-07-29T12:00:03;25.80;72.20
58309;DHT22;44117;57.142;24.826;2022-07-29T12:02:44;25.50;72.20
58309;DHT22;44117;57.142;24.826;2022-07-29T12:05:14;24.60;73.60
58309;DHT22;44117;57.142;24.826;2022-07-29T12:08:22;22.90;77.70
58309;DHT22;44117;57.142;24.826;2022-07-29T12:10:50;23.70;79.50
58309;DHT22;44117;57.142;24.826;2022-07-29T12:13:21;24.30;75.10
58309;DHT22;44117;57.142;24.826;2022-07-29T12:16:03;25.10;75.50
58309;DHT22;44117;57.142;24.826;2022-07-29T12:18:31;26.20;71.80
58309;DHT22;44117;57.142;24.826;2022-07-29T12:21:00;26.40;70.30
58309;DHT22;44117;57.142;24.826;2022-07-29T12:23:31;26.70;69.60
58309;DHT22;44117;57.142;24.826;2022-07-29T12:26:04;25.70;70.30
58309;DHT22;44117;57.142;24.826;2022-07-29T12:28:39;23.80;74.60
58309;DHT22;44117;57.142;24.826;2022-07-29T12:31:13;25.10;77.50
58309;DHT22;44117;57.142;24.826;2022-07-29T12:34:01;26.30;72.50
58309;DHT22;44117;57.142;24.826;2022-07-29T12:36:28;26.90;70.70
58309;DHT22;44117;57.142;24.826;2022-07-29T12:38:56;26.60;71.00
58309;DHT22;44117;57.142;24.826;2022-07-29T12:41:23;26.60;70.70
58309;DHT22;44117;57.142;24.826;2022-07-29T12:43:54;27.00;69.70
58309;DHT22;44117;57.142;24.826;2022-07-29T12:46:22;27.60;68.90
58309;DHT22;44117;57.142;24.826;2022-07-29T12:48:54;27.30;68.90
58309;DHT22;44117;57.142;24.826;2022-07-29T12:51:48;27.80;70.30
58309;DHT22;44117;57.142;24.826;2022-07-29T12:54:16;29.40;66.00
58309;DHT22;44117;57.142;24.826;2022-07-29T12:56:45;29.40;64.90
58309;DHT22;44117;57.142;24.826;2022-07-29T12:59:13;28.10;65.40
58309;DHT22;44117;57.142;24.826;2022-07-29T13:01:41;27.60;65.90
58309;DHT22;44117;57.142;24.826;2022-07-29T13:04:09;25.40;68.30
58309;DHT22;44117;57.142;24.826;2022-07-29T13:06:44;25.80;67.80
58309;DHT22;44117;57.142;24.826;2022-07-29T13:09:20;26.30;67.40
58309;DHT22;44117;57.142;24.826;2022-07-29T13:11:51;27.30;65.70
58309;DHT22;44117;57.142;24.826;2022-07-29T13:14:34;28.20;65.30
58309;DHT22;44117;57.142;24.826;2022-07-29T13:19:41;28.30;64.20
58309;DHT22;44117;57.142;24.826;2022-07-29T13:22:14;27.90;63.70
58309;DHT22;44117;57.142;24.826;2022-07-29T13:27:22;28.20;62.90
58309;DHT22;44117;57.142;24.826;2022-07-29T13:29:50;27.60;64.10
58309;DHT22;44117;57.142;24.826;2022-07-29T13:32:22;28.40;64.20
58309;DHT22;44117;57.142;24.826;2022-07-29T13:34:54;29.80;62.10
58309;DHT22;44117;57.142;24.826;2022-07-29T13:37:22;29.50;62.00
58309;DHT22;44117;57.142;24.826;2022-07-29T13:39:50;27.50;61.50
58309;DHT22;44117;57.142;24.826;2022-07-29T13:42:19;25.90;64.70
58309;DHT22;44117;57.142;24.826;2022-07-29T13:44:46;25.10;68.40
58309;DHT22;44117;57.142;24.826;2022-07-29T13:47:15;26.00;67.80
58309;DHT22;44117;57.142;24.826;2022-07-29T13:49:43;26.90;67.10
58309;DHT22;44117;57.142;24.826;2022-07-29T13:52:10;28.20;66.20
58309;DHT22;44117;57.142;24.826;2022-07-29T13:54:38;28.50;62.70
58309;DHT22;44117;57.142;24.826;2022-07-29T13:57:08;28.90;62.20
58309;DHT22;44117;57.142;24.826;2022-07-29T13:59:41;27.20;65.10
58309;DHT22;44117;57.142;24.826;2022-07-29T14:02:17;28.40;64.10
58309;DHT22;44117;57.142;24.826;2022-07-29T14:04:45;28.60;62.80
58309;DHT22;44117;57.142;24.826;2022-07-29T14:07:14;28.60;63.20
58309;DHT22;44117;57.142;24.826;2022-07-29T14:09:42;27.30;65.10
58309;DHT22;44117;57.142;24.826;2022-07-29T14:12:09;27.40;66.00
58309;DHT22;44117;57.142;24.826;2022-07-29T14:14:37;28.00;63.80
58309;DHT22;44117;57.142;24.826;2022-07-29T14:17:04;29.10;63.80
58309;DHT22;44117;57.142;24.826;2022-07-29T14:19:34;30.90;62.40
58309;DHT22;44117;57.142;24.826;2022-07-29T14:22:07;31.10;60.10
58309;DHT22;44117;57.142;24.826;2022-07-29T14:24:35;31.60;60.20
58309;DHT22;44117;57.142;24.826;2022-07-29T14:27:04;30.90;58.70
58309;DHT22;44117;57.142;24.826;2022-07-29T14:29:33;30.80;59.60
58309;DHT22;44117;57.142;24.826;2022-07-29T14:32:08;30.30;59.90
58309;DHT22;44117;57.142;24.826;2022-07-29T14:34:37;30.20;59.90
58309;DHT22;44117;57.142;24.826;2022-07-29T14:37:05;30.70;60.40
58309;DHT22;44117;57.142;24.826;2022-07-29T14:39:34;31.20;62.20
58309;DHT22;44117;57.142;24.826;2022-07-29T14:42:09;30.80;59.00
58309;DHT22;44117;57.142;24.826;2022-07-29T14:44:38;29.00;62.00
58309;DHT22;44117;57.142;24.826;2022-07-29T14:47:06;29.10;62.40
58309;DHT22;44117;57.142;24.826;2022-07-29T14:49:34;29.20;60.90
58309;DHT22;44117;57.142;24.826;2022-07-29T14:52:02;29.80;60.10
58309;DHT22;44117;57.142;24.826;2022-07-29T14:54:30;31.40;57.70
58309;DHT22;44117;57.142;24.826;2022-07-29T14:56:57;30.90;59.10
58309;DHT22;44117;57.142;24.826;2022-07-29T14:59:25;31.30;58.30
58309;DHT22;44117;57.142;24.826;2022-07-29T15:01:53;31.50;57.00
58309;DHT22;44117;57.142;24.826;2022-07-29T15:04:21;30.80;57.40
58309;DHT22;44117;57.142;24.826;2022-07-29T15:06:48;31.10;58.10
58309;DHT22;44117;57.142;24.826;2022-07-29T15:09:16;30.50;58.00
58309;DHT22;44117;57.142;24.826;2022-07-29T15:11:43;28.50;59.30
58309;DHT22;44117;57.142;24.826;2022-07-29T15:14:11;27.60;61.40
58309;DHT22;44117;57.142;24.826;2022-07-29T15:16:39;27.80;60.90
58309;DHT22;44117;57.142;24.826;2022-07-29T15:19:14;28.50;59.50
58309;DHT22;44117;57.142;24.826;2022-07-29T15:21:41;29.90;58.30
58309;DHT22;44117;57.142;24.826;2022-07-29T15:24:16;30.60;58.10
58309;DHT22;44117;57.142;24.826;2022-07-29T15:26:48;31.70;55.50
58309;DHT22;44117;57.142;24.826;2022-07-29T15:29:15;30.90;55.10
58309;DHT22;44117;57.142;24.826;2022-07-29T15:31:43;31.10;54.40
58309;DHT22;44117;57.142;24.826;2022-07-29T15:34:11;30.80;53.50
58309;DHT22;44117;57.142;24.826;2022-07-29T15:36:38;29.70;56.20
58309;DHT22;44117;57.142;24.826;2022-07-29T15:39:21;28.60;54.70
58309;DHT22;44117;57.142;24.826;2022-07-29T15:41:49;30.40;55.60
58309;DHT22;44117;57.142;24.826;2022-07-29T15:44:18;30.00;56.00
58309;DHT22;44117;57.142;24.826;2022-07-29T15:46:47;31.20;57.30
58309;DHT22;44117;57.142;24.826;2022-07-29T15:49:31;32.50;55.90
58309;DHT22;44117;57.142;24.826;2022-07-29T15:52:16;33.30;55.20
58309;DHT22;44117;57.142;24.826;2022-07-29T15:54:55;31.90;54.90
58309;DHT22;44117;57.142;24.826;2022-07-29T15:57:23;31.40;55.30
58309;DHT22;44117;57.142;24.826;2022-07-29T15:59:51;32.30;53.90
58309;DHT22;44117;57.142;24.826;2022-07-29T16:02:18;32.40;54.40
58309;DHT22;44117;57.142;24.826;2022-07-29T16:04:46;32.20;53.40
58309;DHT22;44117;57.142;24.826;2022-07-29T16:07:14;31.80;54.90
58309;DHT22;44117;57.142;24.826;2022-07-29T16:09:42;31.80;54.50
58309;DHT22;44117;57.142;24.826;2022-07-29T16:12:16;32.00;54.70
58309;DHT22;44117;57.142;24.826;2022-07-29T16:14:44;32.00;54.70
58309;DHT22;44117;57.142;24.826;2022-07-29T16:17:11;32.00;55.20
58309;DHT22;44117;57.142;24.826;2022-07-29T16:19:42;31.90;56.00